createdAt,value
2019-04-22T00:00:43.221Z,95283
2019-04-22T00:01:56.795Z,95281
2019-04-22T00:03:06.473Z,95279
2019-04-22T00:04:17.684Z,95283
2019-04-22T00:05:42.650Z,95276
2019-04-22T00:06:55.867Z,95277
2019-04-22T00:08:08.375Z,95278
2019-04-22T00:09:17.022Z,95276
2019-04-22T00:10:32.020Z,95275
2019-04-22T00:11:45.121Z,95270
2019-04-22T00:12:52.727Z,95268
2019-04-22T00:14:00.548Z,95264
2019-04-22T00:16:26.248Z,95263
2019-04-22T00:17:38.136Z,95266
2019-04-22T00:18:54.087Z,95259
2019-04-22T00:19:57.406Z,95261
2019-04-22T00:21:04.229Z,95266
2019-04-22T00:22:21.923Z,95260
2019-04-22T00:23:23.062Z,95260
2019-04-22T00:24:36.493Z,95255
2019-04-22T00:25:47.774Z,95257
2019-04-22T00:26:55.798Z,95258
2019-04-22T00:28:08.044Z,95257
2019-04-22T00:29:36.899Z,95257
2019-04-22T00:30:40.286Z,95254
2019-04-22T00:31:40.191Z,95253
2019-04-22T00:32:49.072Z,95256
2019-04-22T00:33:57.535Z,95254
2019-04-22T00:35:05.561Z,95251
2019-04-22T00:36:21.532Z,95251
2019-04-22T00:37:34.481Z,95249
2019-04-22T00:38:43.952Z,95244
2019-04-22T00:39:51.131Z,95242
2019-04-22T00:40:58.959Z,95242
2019-04-22T00:42:14.540Z,95242
2019-04-22T00:43:24.062Z,95242
2019-04-22T00:44:38.453Z,95243
2019-04-22T00:45:42.754Z,95240
2019-04-22T00:46:59.370Z,95237
2019-04-22T00:48:08.866Z,95238
2019-04-22T00:49:58.046Z,95240
2019-04-22T00:51:43.752Z,95237
2019-04-22T00:52:47.272Z,95234
2019-04-22T00:53:54.137Z,95238
2019-04-22T00:55:11.729Z,95234
2019-04-22T00:56:15.575Z,95232
2019-04-22T00:57:27.638Z,95230
2019-04-22T00:58:40.509Z,95223
2019-04-22T00:59:51.911Z,95225
2019-04-22T01:01:01.491Z,95222
2019-04-22T01:02:12.928Z,95226
2019-04-22T01:03:25.760Z,95223
2019-04-22T01:05:40.250Z,95217
2019-04-22T01:06:51.058Z,95220
2019-04-22T01:08:05.376Z,95215
2019-04-22T01:09:29.850Z,95219
2019-04-22T01:10:25.010Z,95216
2019-04-22T01:11:31.976Z,95216
2019-04-22T01:12:43.827Z,95218
2019-04-22T01:13:55.089Z,95221
2019-04-22T01:15:06.880Z,95217
2019-04-22T01:16:16.868Z,95220
2019-04-22T01:17:25.434Z,95215
2019-04-22T01:18:35.793Z,95212
2019-04-22T01:19:55.844Z,95211
2019-04-22T01:22:12.812Z,95209
2019-04-22T01:23:17.798Z,95210
2019-04-22T01:24:26.110Z,95208
2019-04-22T01:25:36.313Z,95203
2019-04-22T01:26:43.259Z,95206
2019-04-22T01:27:52.703Z,95209
2019-04-22T01:29:00.684Z,95201
2019-04-22T01:30:09.364Z,95205
2019-04-22T01:31:15.806Z,95204
2019-04-22T01:32:27.192Z,95206
2019-04-22T01:33:37.161Z,95207
2019-04-22T01:34:56.403Z,95207
2019-04-22T01:36:13.520Z,95201
2019-04-22T01:37:19.646Z,95197
2019-04-22T01:38:28.883Z,95202
2019-04-22T01:39:49.585Z,95200
2019-04-22T01:40:59.591Z,95201
2019-04-22T01:42:08.990Z,95200
2019-04-22T01:43:24.405Z,95201
2019-04-22T01:44:28.636Z,95198
2019-04-22T01:45:39.092Z,95203
2019-04-22T01:46:48.939Z,95201
2019-04-22T01:48:02.153Z,95200
2019-04-22T01:49:14.519Z,95196
2019-04-22T01:51:45.050Z,95195
2019-04-22T01:52:45.978Z,95190
2019-04-22T01:53:57.454Z,95190
2019-04-22T01:55:10.171Z,95188
2019-04-22T01:56:13.149Z,95187
2019-04-22T01:57:22.108Z,95189
2019-04-22T01:58:28.520Z,95186
2019-04-22T01:59:40.005Z,95189
2019-04-22T02:01:13.062Z,95187
2019-04-22T02:02:09.059Z,95180
2019-04-22T02:03:17.018Z,95177
2019-04-22T02:04:42.862Z,95178
2019-04-22T02:05:33.893Z,95174
2019-04-22T02:06:48.029Z,95174
2019-04-22T02:08:03.916Z,95177
2019-04-22T02:09:16.947Z,95173
2019-04-22T02:10:27.918Z,95174
2019-04-22T02:11:38.721Z,95171
2019-04-22T02:12:45.028Z,95169
2019-04-22T02:13:55.959Z,95166
2019-04-22T02:15:05.507Z,95164
2019-04-22T02:16:14.037Z,95164
2019-04-22T02:17:31.367Z,95162
2019-04-22T02:18:37.600Z,95162
2019-04-22T02:19:52.924Z,95160
2019-04-22T02:20:54.311Z,95159
2019-04-22T02:22:06.918Z,95154
2019-04-22T02:23:39.494Z,95156
2019-04-22T02:24:33.111Z,95148
2019-04-22T02:25:40.763Z,95146
2019-04-22T02:26:46.257Z,95146
2019-04-22T02:28:04.749Z,95143
2019-04-22T02:29:14.434Z,95146
2019-04-22T02:30:20.749Z,95145
2019-04-22T02:31:48.631Z,95142
2019-04-22T02:34:13.216Z,95148
2019-04-22T02:35:23.158Z,95141
2019-04-22T02:37:54.144Z,95144
2019-04-22T02:38:58.256Z,95142
2019-04-22T02:40:03.256Z,95141
2019-04-22T02:43:43.262Z,95132
2019-04-22T02:44:52.659Z,95132
2019-04-22T02:46:21.889Z,95129
2019-04-22T02:47:09.649Z,95127
2019-04-22T02:48:23.570Z,95131
2019-04-22T02:49:23.990Z,95129
2019-04-22T02:50:36.014Z,95131
2019-04-22T02:51:36.391Z,95123
2019-04-22T02:52:49.533Z,95126
2019-04-22T02:55:31.697Z,95119
2019-04-22T02:57:46.844Z,95119
2019-04-22T03:00:05.381Z,95113
2019-04-22T03:01:13.219Z,95114
2019-04-22T03:02:40.698Z,95114
2019-04-22T03:03:40.337Z,95111
2019-04-22T03:04:36.938Z,95103
2019-04-22T03:06:05.063Z,95110
2019-04-22T03:06:45.720Z,95108
2019-04-22T03:08:14.341Z,95104
2019-04-22T03:09:23.435Z,95106
2019-04-22T03:10:45.965Z,95106
2019-04-22T03:11:44.607Z,95107
2019-04-22T03:12:51.379Z,95105
2019-04-22T03:19:58.343Z,95093
2019-04-22T03:22:15.965Z,95094
2019-04-22T03:27:00.457Z,95094
2019-04-22T03:28:08.192Z,95090
2019-04-22T03:29:17.521Z,95090
2019-04-22T03:37:42.702Z,95084
2019-04-22T03:39:14.817Z,95080
2019-04-22T03:41:13.082Z,95084
2019-04-22T03:42:09.529Z,95087
2019-04-22T03:43:34.876Z,95082
2019-04-22T03:45:37.591Z,95080
2019-04-22T03:47:15.824Z,95074
2019-04-22T03:51:45.447Z,95076
2019-04-22T03:52:52.496Z,95074
2019-04-22T03:54:09.807Z,95078
2019-04-22T03:55:06.762Z,95078
2019-04-22T03:56:55.822Z,95071
2019-04-22T03:58:47.717Z,95068
2019-04-22T04:01:05.404Z,95070
2019-04-22T04:02:21.160Z,95067
2019-04-22T04:03:18.878Z,95070
2019-04-22T04:07:19.877Z,95068
2019-04-22T04:10:39.443Z,95062
2019-04-22T04:11:51.504Z,95062
2019-04-22T04:14:09.113Z,95060
2019-04-22T04:15:23.327Z,95063
2019-04-22T04:16:19.040Z,95065
2019-04-22T04:17:36.236Z,95055
2019-04-22T04:18:46.366Z,95063
2019-04-22T04:21:20.385Z,95062
2019-04-22T04:22:20.826Z,95061
2019-04-22T04:23:28.386Z,95057
2019-04-22T04:24:43.791Z,95063
2019-04-22T04:25:51.412Z,95059
2019-04-22T04:29:34.961Z,95065
2019-04-22T04:30:29.368Z,95063
2019-04-22T04:35:21.031Z,95066
2019-04-22T04:36:16.300Z,95067
2019-04-22T04:40:03.155Z,95061
2019-04-22T04:40:57.192Z,95067
2019-04-22T04:42:22.789Z,95063
2019-04-22T04:45:44.686Z,95057
2019-04-22T04:47:11.167Z,95057
2019-04-22T04:49:07.188Z,95056
2019-04-22T04:50:17.238Z,95061
2019-04-22T04:53:00.972Z,95058
2019-04-22T04:54:03.968Z,95056
2019-04-22T04:56:19.701Z,95055
2019-04-22T04:57:33.343Z,95056
2019-04-22T05:00:21.360Z,95052
2019-04-22T05:02:09.177Z,95060
2019-04-22T05:03:56.540Z,95056
2019-04-22T05:04:36.873Z,95055
2019-04-22T05:05:39.346Z,95055
2019-04-22T05:06:59.155Z,95060
2019-04-22T05:07:58.652Z,95058
2019-04-22T05:12:51.723Z,95063
2019-04-22T05:13:57.052Z,95067
2019-04-22T05:15:03.510Z,95067
2019-04-22T05:16:24.170Z,95059
2019-04-22T05:17:25.018Z,95064
2019-04-22T05:18:37.071Z,95070
2019-04-22T05:19:35.560Z,95068
2019-04-22T05:20:59.355Z,95062
2019-04-22T05:23:15.822Z,95065
2019-04-22T05:24:27.953Z,95066
2019-04-22T05:25:31.458Z,95064
2019-04-22T05:26:48.245Z,95062
2019-04-22T05:27:50.531Z,95060
2019-04-22T05:29:04.927Z,95062
2019-04-22T05:31:31.962Z,95061
2019-04-22T05:32:36.839Z,95055
2019-04-22T05:33:47.550Z,95059
2019-04-22T05:34:52.619Z,95057
2019-04-22T05:36:06.819Z,95060
2019-04-22T05:37:20.400Z,95055
2019-04-22T05:38:32.883Z,95054
2019-04-22T05:39:35.488Z,95051
2019-04-22T05:40:49.475Z,95047
2019-04-22T05:42:02.975Z,95050
2019-04-22T05:43:07.472Z,95046
2019-04-22T05:45:31.011Z,95043
2019-04-22T05:46:39.054Z,95042
2019-04-22T05:47:51.692Z,95045
2019-04-22T05:49:05.741Z,95038
2019-04-22T05:50:12.857Z,95042
2019-04-22T05:51:25.455Z,95039
2019-04-22T05:52:31.363Z,95041
2019-04-22T05:53:39.875Z,95036
2019-04-22T05:54:54.426Z,95031
2019-04-22T05:56:11.945Z,95035
2019-04-22T05:57:17.790Z,95034
2019-04-22T05:58:22.064Z,95032
2019-04-22T05:59:37.334Z,95034
2019-04-22T06:01:10.121Z,95028
2019-04-22T06:02:02.675Z,95026
2019-04-22T06:03:20.410Z,95029
2019-04-22T06:04:13.415Z,95028
2019-04-22T06:05:30.138Z,95027
2019-04-22T06:06:35.190Z,95030
2019-04-22T06:07:45.085Z,95033
2019-04-22T06:09:03.796Z,95033
2019-04-22T06:10:03.917Z,95036
2019-04-22T06:11:25.459Z,95035
2019-04-22T06:12:25.846Z,95031
2019-04-22T06:13:31.785Z,95030
2019-04-22T06:14:53.608Z,95037
2019-04-22T06:15:56.753Z,95039
2019-04-22T06:17:16.683Z,95030
2019-04-22T06:19:31.138Z,95030
2019-04-22T06:20:45.259Z,95027
2019-04-22T06:22:12.613Z,95031
2019-04-22T06:23:12.002Z,95024
2019-04-22T06:25:36.511Z,95025
2019-04-22T06:27:47.044Z,95028
2019-04-22T06:29:00.035Z,95025
2019-04-22T06:30:09.342Z,95023
2019-04-22T06:32:30.845Z,95028
2019-04-22T06:33:40.342Z,95028
2019-04-22T06:34:47.989Z,95028
2019-04-22T06:36:01.623Z,95028
2019-04-22T06:37:12.686Z,95030
2019-04-22T06:39:43.311Z,95025
2019-04-22T06:40:46.360Z,95021
2019-04-22T06:41:52.932Z,95021
2019-04-22T06:44:17.795Z,95024
2019-04-22T06:45:23.277Z,95019
2019-04-22T06:46:33.432Z,95022
2019-04-22T06:47:58.960Z,95022
2019-04-22T06:48:54.249Z,95023
2019-04-22T06:50:07.019Z,95017
2019-04-22T06:51:19.376Z,95020
2019-04-22T06:52:20.507Z,95023
2019-04-22T06:54:48.571Z,95026
2019-04-22T06:55:59.286Z,95025
2019-04-22T06:57:05.478Z,95026
2019-04-22T06:58:34.450Z,95024
2019-04-22T06:59:31.002Z,95021
2019-04-22T07:00:41.430Z,95020
2019-04-22T07:01:48.484Z,95019
2019-04-22T07:04:09.075Z,95014
2019-04-22T07:05:21.550Z,95013
2019-04-22T07:06:34.657Z,95015
2019-04-22T07:07:44.482Z,95011
2019-04-22T07:09:12.127Z,95011
2019-04-22T07:10:14.635Z,95007
2019-04-22T07:11:05.594Z,95011
2019-04-22T07:12:24.199Z,95008
2019-04-22T07:13:33.951Z,95006
2019-04-22T07:14:48.284Z,95004
2019-04-22T07:16:10.902Z,95002
2019-04-22T07:17:06.904Z,94998
2019-04-22T07:18:24.318Z,94998
2019-04-22T07:19:27.459Z,94998
2019-04-22T07:20:56.184Z,95000
2019-04-22T07:21:49.908Z,94990
2019-04-22T07:23:01.748Z,94990
2019-04-22T07:24:27.313Z,94990
2019-04-22T07:25:15.468Z,94989
2019-04-22T07:26:24.017Z,94992
2019-04-22T07:27:40.282Z,94988
2019-04-22T07:28:48.721Z,94990
2019-04-22T07:30:08.436Z,94991
2019-04-22T07:31:15.491Z,94987
2019-04-22T07:32:33.176Z,94983
2019-04-22T07:33:37.352Z,94988
2019-04-22T07:34:45.711Z,94980
2019-04-22T07:36:05.980Z,94977
2019-04-22T07:38:17.367Z,94981
2019-04-22T07:39:29.542Z,94973
2019-04-22T07:40:38.618Z,94972
2019-04-22T07:41:42.804Z,94973
2019-04-22T07:42:56.883Z,94972
2019-04-22T07:44:23.962Z,94975
2019-04-22T07:45:15.127Z,94968
2019-04-22T07:46:33.366Z,94971
2019-04-22T07:47:37.278Z,94969
2019-04-22T07:48:51.468Z,94968
2019-04-22T07:52:22.401Z,94966
2019-04-22T07:53:27.603Z,94964
2019-04-22T07:54:46.405Z,94970
2019-04-22T07:55:51.666Z,94966
2019-04-22T07:57:08.506Z,94967
2019-04-22T07:59:27.850Z,94962
2019-04-22T08:00:33.935Z,94960
2019-04-22T08:01:41.344Z,94960
2019-04-22T08:02:58.898Z,94964
2019-04-22T08:05:18.220Z,94959
2019-04-22T08:06:45.846Z,94951
2019-04-22T08:07:34.314Z,94949
2019-04-22T08:08:50.950Z,94947
2019-04-22T08:10:06.657Z,94955
2019-04-22T08:11:21.355Z,94946
2019-04-22T08:12:18.568Z,94947
2019-04-22T08:13:30.235Z,94939
2019-04-22T08:14:40.152Z,94939
2019-04-22T08:15:53.350Z,94938
2019-04-22T08:17:07.118Z,94936
2019-04-22T08:18:17.096Z,94938
2019-04-22T08:19:26.404Z,94939
2019-04-22T08:20:33.214Z,94939
2019-04-22T08:21:45.329Z,94933
2019-04-22T08:22:57.165Z,94929
2019-04-22T08:24:05.806Z,94929
2019-04-22T08:25:09.579Z,94930
2019-04-22T08:26:27.209Z,94925
2019-04-22T08:27:34.955Z,94924
2019-04-22T08:30:13.757Z,94927
2019-04-22T08:31:07.474Z,94930
2019-04-22T08:32:21.538Z,94922
2019-04-22T08:33:28.687Z,94919
2019-04-22T08:34:36.629Z,94927
2019-04-22T08:37:23.754Z,94919
2019-04-22T08:38:11.138Z,94918
2019-04-22T08:39:18.526Z,94918
2019-04-22T08:40:35.970Z,94919
2019-04-22T08:41:37.034Z,94909
2019-04-22T08:42:55.093Z,94908
2019-04-22T08:44:00.546Z,94905
2019-04-22T08:46:32.885Z,94907
2019-04-22T08:47:35.781Z,94906
2019-04-22T08:48:35.973Z,94907
2019-04-22T08:50:02.339Z,94906
2019-04-22T08:51:08.361Z,94907
2019-04-22T08:52:15.607Z,94911
2019-04-22T08:53:55.850Z,94904
2019-04-22T08:55:03.497Z,94900
2019-04-22T08:56:23.307Z,94902
2019-04-22T08:57:25.389Z,94898
2019-04-22T08:58:31.001Z,94896
2019-04-22T08:59:43.039Z,94896
2019-04-22T09:00:56.506Z,94898
2019-04-22T09:02:06.107Z,94898
2019-04-22T09:03:15.709Z,94898
2019-04-22T09:04:15.952Z,94891
2019-04-22T09:05:48.191Z,94893
2019-04-22T09:07:58.493Z,94891
2019-04-22T09:09:11.041Z,94892
2019-04-22T09:10:16.949Z,94888
2019-04-22T09:11:34.809Z,94890
2019-04-22T09:12:51.594Z,94895
2019-04-22T09:14:01.432Z,94891
2019-04-22T09:14:54.908Z,94887
2019-04-22T09:16:10.144Z,94886
2019-04-22T09:17:19.776Z,94884
2019-04-22T09:18:34.296Z,94882
2019-04-22T09:19:40.211Z,94878
2019-04-22T09:20:57.059Z,94875
2019-04-22T09:22:04.309Z,94872
2019-04-22T09:23:14.628Z,94879
2019-04-22T09:24:22.919Z,94879
2019-04-22T09:25:34.073Z,94874
2019-04-22T09:26:47.285Z,94874
2019-04-22T09:27:55.508Z,94875
2019-04-22T09:29:12.238Z,94883
2019-04-22T09:30:18.264Z,94876
2019-04-22T09:31:23.289Z,94876
2019-04-22T09:32:44.539Z,94875
2019-04-22T09:33:58.851Z,94873
2019-04-22T09:34:56.051Z,94869
2019-04-22T09:36:16.005Z,94877
2019-04-22T09:39:40.594Z,94866
2019-04-22T09:40:51.597Z,94869
2019-04-22T09:42:04.566Z,94864
2019-04-22T09:43:16.689Z,94866
2019-04-22T09:44:21.540Z,94865
2019-04-22T09:45:33.933Z,94854
2019-04-22T09:46:46.630Z,94861
2019-04-22T09:49:11.580Z,94854
2019-04-22T09:50:14.873Z,94851
2019-04-22T09:51:24.790Z,94855
2019-04-22T09:52:40.491Z,94856
2019-04-22T09:53:52.526Z,94855
2019-04-22T09:56:09.463Z,94854
2019-04-22T09:57:20.890Z,94849
2019-04-22T09:58:31.236Z,94842
2019-04-22T09:59:42.918Z,94843
2019-04-22T10:00:51.840Z,94848
2019-04-22T10:02:12.719Z,94836
2019-04-22T10:03:13.444Z,94844
2019-04-22T10:04:17.830Z,94845
2019-04-22T10:05:32.101Z,94848
2019-04-22T10:06:53.836Z,94839
2019-04-22T10:10:14.885Z,94835
2019-04-22T10:12:36.123Z,94830
2019-04-22T10:13:47.368Z,94831
2019-04-22T10:14:53.794Z,94828
2019-04-22T10:16:10.245Z,94819
2019-04-22T10:17:17.138Z,94816
2019-04-22T10:18:31.685Z,94820
2019-04-22T10:19:35.698Z,94822
2019-04-22T10:20:53.705Z,94818
2019-04-22T10:21:56.720Z,94819
2019-04-22T10:23:12.486Z,94814
2019-04-22T10:24:18.303Z,94818
2019-04-22T10:25:29.182Z,94812
2019-04-22T10:27:55.035Z,94810
2019-04-22T10:29:05.487Z,94805
2019-04-22T10:30:08.249Z,94809
2019-04-22T10:31:30.737Z,94809
2019-04-22T10:32:28.939Z,94810
2019-04-22T10:33:35.161Z,94803
2019-04-22T10:34:38.359Z,94798
2019-04-22T10:35:41.344Z,94799
2019-04-22T10:36:55.814Z,94801
2019-04-22T10:38:01.159Z,94794
2019-04-22T10:39:12.633Z,94796
2019-04-22T10:40:21.768Z,94798
2019-04-22T10:41:30.873Z,94795
2019-04-22T10:42:40.918Z,94785
2019-04-22T10:43:50.915Z,94786
2019-04-22T10:45:01.011Z,94792
2019-04-22T10:46:10.421Z,94795
2019-04-22T10:47:19.998Z,94787
2019-04-22T10:48:28.369Z,94780
2019-04-22T10:49:38.288Z,94775
2019-04-22T10:50:48.706Z,94774
2019-04-22T10:51:58.345Z,94775
2019-04-22T10:53:07.766Z,94774
2019-04-22T10:54:17.716Z,94772
2019-04-22T10:55:27.483Z,94768
2019-04-22T10:56:36.924Z,94769
2019-04-22T10:57:46.711Z,94761
2019-04-22T10:58:56.381Z,94760
2019-04-22T11:00:05.807Z,94762
2019-04-22T11:01:17.725Z,94753
2019-04-22T11:02:25.968Z,94753
2019-04-22T11:03:37.192Z,94757
2019-04-22T11:04:46.033Z,94756
2019-04-22T11:05:56.945Z,94754
2019-04-22T11:07:09.008Z,94753
2019-04-22T11:08:24.164Z,94745
2019-04-22T11:09:27.143Z,94746
2019-04-22T11:10:54.079Z,94743
2019-04-22T11:11:56.327Z,94737
2019-04-22T11:12:59.039Z,94734
2019-04-22T11:14:08.782Z,94732
2019-04-22T11:15:18.174Z,94732
2019-04-22T11:16:27.831Z,94721
2019-04-22T11:17:37.661Z,94731
2019-04-22T11:18:47.539Z,94727
2019-04-22T11:19:57.489Z,94730
2019-04-22T11:21:07.483Z,94731
2019-04-22T11:22:22.747Z,94722
2019-04-22T11:23:28.785Z,94722
2019-04-22T11:24:37.205Z,94719
2019-04-22T11:25:48.028Z,94716
2019-04-22T11:26:58.772Z,94721
2019-04-22T11:28:09.607Z,94718
2019-04-22T11:29:19.518Z,94720
2019-04-22T11:30:30.223Z,94716
2019-04-22T11:31:39.391Z,94719
2019-04-22T11:32:50.642Z,94723
2019-04-22T11:34:00.747Z,94719
2019-04-22T11:35:09.859Z,94716
2019-04-22T11:36:19.948Z,94707
2019-04-22T11:37:30.418Z,94703
2019-04-22T11:38:45.729Z,94703
2019-04-22T11:40:02.016Z,94701
2019-04-22T11:41:01.822Z,94689
2019-04-22T11:42:10.227Z,94698
2019-04-22T11:43:19.965Z,94700
2019-04-22T11:44:30.679Z,94699
2019-04-22T11:45:39.870Z,94694
2019-04-22T11:46:51.592Z,94692
2019-04-22T11:48:01.393Z,94685
2019-04-22T11:49:09.863Z,94688
2019-04-22T11:50:19.883Z,94689
2019-04-22T11:51:29.725Z,94686
2019-04-22T11:52:40.428Z,94688
2019-04-22T11:53:49.611Z,94689
2019-04-22T11:54:59.117Z,94689
2019-04-22T11:56:10.984Z,94693
2019-04-22T11:57:21.133Z,94690
2019-04-22T11:58:30.730Z,94694
2019-04-22T11:59:40.742Z,94682
2019-04-22T12:00:51.469Z,94680
2019-04-22T12:02:00.657Z,94682
2019-04-22T12:03:09.822Z,94679
2019-04-22T12:04:20.070Z,94675
2019-04-22T12:05:29.969Z,94677
2019-04-22T12:06:39.901Z,94679
2019-04-22T12:07:49.041Z,94676
2019-04-22T12:08:59.558Z,94676
2019-04-22T12:10:17.408Z,94675
2019-04-22T12:11:20.628Z,94665
2019-04-22T12:12:29.910Z,94670
2019-04-22T12:13:39.998Z,94675
2019-04-22T12:14:50.056Z,94666
2019-04-22T12:16:00.910Z,94671
2019-04-22T12:17:11.229Z,94668
2019-04-22T12:18:21.136Z,94663
2019-04-22T12:19:31.258Z,94660
2019-04-22T12:20:41.402Z,94652
2019-04-22T12:21:51.169Z,94650
2019-04-22T12:23:01.103Z,94651
2019-04-22T12:24:10.910Z,94644
2019-04-22T12:25:31.729Z,94645
2019-04-22T12:26:30.750Z,94653
2019-04-22T12:27:41.307Z,94642
2019-04-22T12:28:53.034Z,94638
2019-04-22T12:30:02.953Z,94635
2019-04-22T12:31:13.371Z,94637
2019-04-22T12:32:23.243Z,94632
2019-04-22T12:33:32.955Z,94632
2019-04-22T12:34:43.659Z,94634
2019-04-22T12:35:52.700Z,94627
2019-04-22T12:37:02.650Z,94630
2019-04-22T12:38:13.059Z,94631
2019-04-22T12:39:22.976Z,94627
2019-04-22T12:40:40.749Z,94621
2019-04-22T12:41:44.203Z,94615
2019-04-22T12:42:53.529Z,94615
2019-04-22T12:44:05.170Z,94624
2019-04-22T12:45:14.448Z,94617
2019-04-22T12:46:24.095Z,94616
2019-04-22T12:47:33.684Z,94600
2019-04-22T12:48:43.403Z,94604
2019-04-22T12:49:55.223Z,94608
2019-04-22T12:51:03.286Z,94605
2019-04-22T12:52:22.257Z,94609
2019-04-22T12:53:26.146Z,94597
2019-04-22T12:54:33.095Z,94599
2019-04-22T12:55:43.583Z,94586
2019-04-22T12:56:53.390Z,94593
2019-04-22T12:58:02.920Z,94601
2019-04-22T12:59:12.193Z,94593
2019-04-22T13:00:22.763Z,94593
2019-04-22T13:01:33.306Z,94591
2019-04-22T13:02:43.132Z,94581
2019-04-22T13:03:53.885Z,94577
2019-04-22T13:05:03.886Z,94574
2019-04-22T13:06:14.049Z,94576
2019-04-22T13:07:22.065Z,94578
2019-04-22T13:08:33.912Z,94567
2019-04-22T13:09:43.260Z,94563
2019-04-22T13:10:59.081Z,94571
2019-04-22T13:12:03.372Z,94563
2019-04-22T13:13:15.308Z,94573
2019-04-22T13:14:23.352Z,94567
2019-04-22T13:15:35.058Z,94566
2019-04-22T13:16:44.896Z,94561
2019-04-22T13:18:02.891Z,94555
2019-04-22T13:19:07.274Z,94555
2019-04-22T13:20:16.907Z,94557
2019-04-22T13:21:24.664Z,94551
2019-04-22T13:22:34.904Z,94563
2019-04-22T13:23:44.463Z,94552
2019-04-22T13:24:54.186Z,94554
2019-04-22T13:26:05.121Z,94552
2019-04-22T13:27:14.996Z,94548
2019-04-22T13:28:25.176Z,94554
2019-04-22T13:29:34.933Z,94551
2019-04-22T13:30:44.319Z,94556
2019-04-22T13:31:54.893Z,94548
2019-04-22T13:33:05.074Z,94550
2019-04-22T13:34:21.221Z,94547
2019-04-22T13:35:24.565Z,94542
2019-04-22T13:36:34.589Z,94549
2019-04-22T13:37:44.039Z,94544
2019-04-22T13:38:53.565Z,94553
2019-04-22T13:40:05.337Z,94541
2019-04-22T13:41:23.871Z,94544
2019-04-22T13:42:25.395Z,94541
2019-04-22T13:43:34.839Z,94544
2019-04-22T13:44:44.240Z,94544
2019-04-22T13:45:56.031Z,94538
2019-04-22T13:47:19.534Z,94548
2019-04-22T13:48:30.919Z,94535
2019-04-22T13:49:58.833Z,94534
2019-04-22T13:51:03.205Z,94545
2019-04-22T13:52:20.461Z,94537
2019-04-22T13:53:37.495Z,94544
2019-04-22T13:55:44.799Z,94538
2019-04-22T13:56:47.355Z,94537
2019-04-22T13:57:52.209Z,94543
2019-04-22T13:59:01.656Z,94541
2019-04-22T14:00:01.876Z,94544
2019-04-22T14:01:10.610Z,94535
2019-04-22T14:02:20.198Z,94536
2019-04-22T14:03:30.868Z,94533
2019-04-22T14:04:40.858Z,94530
2019-04-22T14:05:50.886Z,94532
2019-04-22T14:07:00.745Z,94523
2019-04-22T14:08:10.648Z,94536
2019-04-22T14:09:20.808Z,94528
2019-04-22T14:10:30.264Z,94526
2019-04-22T14:11:49.286Z,94529
2019-04-22T14:12:50.920Z,94529
2019-04-22T14:14:00.804Z,94526
2019-04-22T14:15:11.447Z,94523
2019-04-22T14:16:20.764Z,94521
2019-04-22T14:17:31.484Z,94520
2019-04-22T14:18:41.149Z,94526
2019-04-22T14:19:50.763Z,94529
2019-04-22T14:21:00.889Z,94522
2019-04-22T14:22:09.720Z,94531
2019-04-22T14:23:20.454Z,94524
2019-04-22T14:24:29.979Z,94526
2019-04-22T14:25:39.128Z,94520
2019-04-22T14:26:58.439Z,94520
2019-04-22T14:28:04.050Z,94516
2019-04-22T14:29:11.345Z,94519
2019-04-22T14:30:20.856Z,94514
2019-04-22T14:31:30.736Z,94516
2019-04-22T14:32:39.884Z,94506
2019-04-22T14:33:53.309Z,94510
2019-04-22T14:35:00.730Z,94509
2019-04-22T14:36:11.386Z,94505
2019-04-22T14:37:20.306Z,94510
2019-04-22T14:38:30.256Z,94518
2019-04-22T14:39:39.957Z,94511
2019-04-22T14:40:49.887Z,94514
2019-04-22T14:42:16.522Z,94512
2019-04-22T14:43:28.689Z,94506
2019-04-22T14:46:02.576Z,94503
2019-04-22T14:47:07.840Z,94497
2019-04-22T14:48:17.211Z,94495
2019-04-22T14:49:23.704Z,94494
2019-04-22T14:50:34.967Z,94500
2019-04-22T14:51:43.815Z,94497
2019-04-22T14:52:57.848Z,94495
2019-04-22T14:54:09.589Z,94498
2019-04-22T14:55:12.733Z,94479
2019-04-22T14:56:16.089Z,94491
2019-04-22T14:57:27.692Z,94487
2019-04-22T14:58:37.235Z,94488
2019-04-22T14:59:46.138Z,94495
2019-04-22T15:00:55.257Z,94481
2019-04-22T15:02:05.640Z,94484
2019-04-22T15:03:15.560Z,94487
2019-04-22T15:04:24.509Z,94483
2019-04-22T15:05:34.365Z,94474
2019-04-22T15:06:46.423Z,94480
2019-04-22T15:07:53.144Z,94479
2019-04-22T15:09:03.794Z,94479
2019-04-22T15:10:13.687Z,94478
2019-04-22T15:11:23.491Z,94479
2019-04-22T15:12:39.023Z,94476
2019-04-22T15:13:45.189Z,94474
2019-04-22T15:14:55.471Z,94475
2019-04-22T15:16:05.695Z,94474
2019-04-22T15:17:16.468Z,94474
2019-04-22T15:18:25.694Z,94469
2019-04-22T15:19:35.802Z,94480
2019-04-22T15:20:45.955Z,94470
2019-04-22T15:21:54.874Z,94464
2019-04-22T15:23:04.711Z,94467
2019-04-22T15:24:14.230Z,94472
2019-04-22T15:25:23.408Z,94470
2019-04-22T15:26:34.616Z,94472
2019-04-22T15:27:43.569Z,94472
2019-04-22T15:28:53.896Z,94470
2019-04-22T15:30:03.653Z,94469
2019-04-22T15:31:15.180Z,94463
2019-04-22T15:32:25.254Z,94462
2019-04-22T15:33:35.228Z,94459
2019-04-22T15:34:46.867Z,94471
2019-04-22T15:35:55.525Z,94454
2019-04-22T15:37:04.395Z,94464
2019-04-22T15:38:15.534Z,94456
2019-04-22T15:39:25.333Z,94459
2019-04-22T15:40:34.861Z,94452
2019-04-22T15:41:55.936Z,94454
2019-04-22T15:42:55.052Z,94454
2019-04-22T15:44:05.933Z,94447
2019-04-22T15:45:16.375Z,94451
2019-04-22T15:46:25.718Z,94452
2019-04-22T15:47:34.866Z,94453
2019-04-22T15:48:44.351Z,94446
2019-04-22T15:49:56.162Z,94448
2019-04-22T15:51:04.785Z,94447
2019-04-22T15:52:14.630Z,94447
2019-04-22T15:53:25.368Z,94444
2019-04-22T15:54:34.783Z,94443
2019-04-22T15:55:44.878Z,94431
2019-04-22T15:56:54.843Z,94431
2019-04-22T15:58:03.875Z,94441
2019-04-22T15:59:29.786Z,94432
2019-04-22T16:00:35.174Z,94437
2019-04-22T16:01:37.290Z,94437
2019-04-22T16:02:57.614Z,94425
2019-04-22T16:04:08.386Z,94432
2019-04-22T16:05:17.454Z,94439
2019-04-22T16:06:28.118Z,94435
2019-04-22T16:07:37.844Z,94427
2019-04-22T16:08:47.963Z,94434
2019-04-22T16:09:57.617Z,94428
2019-04-22T16:11:06.976Z,94432
2019-04-22T16:12:25.578Z,94417
2019-04-22T16:13:30.765Z,94424
2019-04-22T16:14:43.424Z,94424
2019-04-22T16:15:49.075Z,94419
2019-04-22T16:17:00.774Z,94417
2019-04-22T16:18:10.919Z,94410
2019-04-22T16:19:19.025Z,94415
2019-04-22T16:20:28.031Z,94412
2019-04-22T16:21:42.286Z,94403
2019-04-22T16:22:47.805Z,94403
2019-04-22T16:23:58.621Z,94406
2019-04-22T16:25:08.969Z,94409
2019-04-22T16:26:18.291Z,94407
2019-04-22T16:27:27.818Z,94407
2019-04-22T16:28:37.662Z,94401
2019-04-22T16:29:49.529Z,94401
2019-04-22T16:36:34.553Z,94403
2019-04-22T16:37:43.269Z,94399
2019-04-22T16:38:55.152Z,94398
2019-04-22T16:40:04.987Z,94400
2019-04-22T16:41:13.005Z,94398
2019-04-22T16:42:30.068Z,94398
2019-04-22T16:43:33.041Z,94396
2019-04-22T16:44:45.909Z,94400
2019-04-22T16:45:53.760Z,94394
2019-04-22T16:47:03.665Z,94390
2019-04-22T16:48:13.629Z,94389
2019-04-22T16:49:29.829Z,94393
2019-04-22T16:50:41.707Z,94392
2019-04-22T16:51:51.919Z,94386
2019-04-22T16:53:02.025Z,94395
2019-04-22T16:54:11.878Z,94396